Main page
METAR-TAF:

METAR-TAF

Airports :

Lawrence Municipal Airport

Lawrence, Kansas, United States

latitude: 39-00-30N, longitude: 095-12-42W, elevation: 830 ft

Current weather observation

The report was made 38 minutes ago, at 21:52 UTC
Wind 10 mph from the North
Temperature 34°F
Humidity 31%
Pressure 30.73 in. Hg
Visibility: 10 miles
Clear sky

METAR: KLWC 202152Z AUTO 01009KT 10SM CLR 01/M14 A3073 RMK AO2 SLP417 T00061144

Time: 16:30 (22:30 UTC)


TAF: missing

Weather observations and forecasts of more than 4000 airports (METAR and TAF reports).

The available stations are represented by yellow and red dots on the map.

Hover mouse over dot to see the name of the station.

Then click to see weather observations and forecasts.

To change the map : click on the green buttons with a black cross to zoom in, on the green button with a dash to zoom out, or on the green arrows for adjacent maps.


METAR-TAF: